Eglin, Florida
Current Conditions -  °F | °C
As of 8:58 AM on Thursday 18 Dec 2014 (Local Time) from KVPS Reporting Station
Clear Clear  
Wind Chill: 45°   Ceiling: Unl
Heat Index: 48°   Visibility: 10mi
Dew Point: 40°   Wind: 6mph
Humidity: 73%   Direction: 30°NNE
Pressure: 30.23"   Gusts: NA
Location:  30.5697°N, 86.6042°W
Report Text: KVPS 181458Z AUTO 03005KT 10SM CLR 09/04 A3023 RMK AO2 DZB1433E1440 SLP244 P0000 60000 T00890043 53013 $
Loading
Personal Weather Stations






























Interactive Weather Map New forecast layout! Learn more

10-Day Weather Forecast

Advertisements
Track Severe Weather on mobile